createdAt,value
2023-02-19T00:03:10.631Z,8.95
2023-02-19T00:08:12.076Z,9.01
2023-02-19T00:13:17.663Z,9.07
2023-02-19T00:18:19.127Z,9.02
2023-02-19T00:23:20.597Z,9.12
2023-02-19T00:28:22.488Z,8.95
2023-02-19T00:33:23.961Z,8.95
2023-02-19T00:38:25.385Z,8.85
2023-02-19T00:43:27.022Z,8.84
2023-02-19T00:48:28.393Z,8.82
2023-02-19T00:53:29.939Z,8.80
2023-02-19T00:58:31.433Z,8.81
2023-02-19T01:03:37.087Z,8.77
2023-02-19T01:08:38.948Z,8.80
2023-02-19T01:13:40.763Z,8.75
2023-02-19T01:18:42.706Z,8.75
2023-02-19T01:23:44.322Z,8.72
2023-02-19T01:28:46.148Z,8.74
2023-02-19T01:33:59.197Z,8.76
2023-02-19T01:39:03.961Z,8.68
2023-02-19T01:44:28.383Z,8.63
2023-02-19T01:49:39.742Z,8.58
2023-02-19T01:54:44.100Z,8.58
2023-02-19T01:59:48.323Z,8.53
2023-02-19T02:04:49.998Z,8.48
2023-02-19T02:10:10.818Z,8.42
2023-02-19T02:15:13.860Z,8.38
2023-02-19T02:20:35.523Z,8.33
2023-02-19T02:26:09.869Z,8.33
2023-02-19T02:31:23.918Z,8.30
2023-02-19T02:36:28.952Z,8.28
2023-02-19T02:41:32.343Z,8.28
2023-02-19T02:46:36.813Z,8.29
2023-02-19T02:51:43.622Z,8.30
2023-02-19T02:56:59.468Z,8.27
2023-02-19T03:02:14.715Z,8.22
2023-02-19T03:07:16.819Z,8.27
2023-02-19T03:12:39.601Z,8.28
2023-02-19T03:18:06.035Z,8.25
2023-02-19T03:23:12.845Z,8.20
2023-02-19T03:28:17.608Z,8.24
2023-02-19T03:33:24.910Z,8.20
2023-02-19T03:38:53.659Z,8.14
2023-02-19T03:44:41.939Z,8.14
2023-02-19T03:49:54.663Z,8.08
2023-02-19T03:55:16.559Z,8.10
2023-02-19T04:00:38.658Z,8.01
2023-02-19T04:05:47.583Z,7.99
2023-02-19T04:10:51.868Z,8.03
2023-02-19T04:15:56.882Z,7.97
2023-02-19T04:21:00.400Z,7.95
2023-02-19T04:26:03.689Z,7.95
2023-02-19T04:31:05.552Z,7.95
2023-02-19T04:36:07.965Z,8.03
2023-02-19T04:41:10.233Z,7.96
2023-02-19T04:46:11.822Z,7.97
2023-02-19T04:51:13.509Z,8.00
2023-02-19T04:56:16.703Z,8.06
2023-02-19T05:01:18.183Z,8.07
2023-02-19T05:06:19.702Z,7.97
2023-02-19T05:11:23.692Z,7.93
2023-02-19T05:16:25.171Z,7.87
2023-02-19T05:21:26.838Z,7.89
2023-02-19T05:26:29.225Z,7.91
2023-02-19T05:31:33.584Z,7.92
2023-02-19T05:36:37.081Z,7.95
2023-02-19T05:41:39.097Z,7.94
2023-02-19T05:46:40.575Z,7.97
2023-02-19T05:51:42.068Z,7.98
2023-02-19T05:56:43.511Z,7.98
2023-02-19T06:01:45.849Z,7.98
2023-02-19T06:06:48.102Z,7.98
2023-02-19T06:11:49.549Z,8.00
2023-02-19T06:16:50.994Z,7.98
2023-02-19T06:21:52.457Z,7.99
2023-02-19T06:26:53.932Z,8.00
2023-02-19T06:31:55.477Z,7.98
2023-02-19T06:36:57.947Z,7.97
2023-02-19T06:41:59.474Z,8.00
2023-02-19T06:47:00.914Z,7.96
2023-02-19T06:52:03.635Z,7.99
2023-02-19T06:57:05.122Z,7.90
2023-02-19T07:02:07.156Z,7.92
2023-02-19T07:07:11.884Z,7.86
2023-02-19T07:12:13.326Z,7.69
2023-02-19T07:17:14.818Z,7.13
2023-02-19T07:22:16.249Z,6.87
2023-02-19T07:27:17.800Z,6.80
2023-02-19T07:32:19.237Z,6.16
2023-02-19T07:37:20.686Z,5.80
2023-02-19T07:42:22.171Z,5.87
2023-02-19T07:47:24.374Z,5.88
2023-02-19T07:52:25.940Z,5.87
2023-02-19T07:57:29.134Z,6.04
2023-02-19T08:02:49.305Z,5.76
2023-02-19T08:07:50.758Z,5.85
2023-02-19T08:13:15.526Z,5.89
2023-02-19T08:18:18.127Z,5.60
2023-02-19T08:23:22.466Z,5.58
2023-02-19T08:28:23.907Z,5.39
2023-02-19T08:33:25.335Z,5.63
2023-02-19T08:38:27.787Z,5.44
2023-02-19T08:43:29.239Z,5.18
2023-02-19T08:48:30.700Z,4.94
2023-02-19T08:53:32.858Z,4.99
2023-02-19T08:58:34.391Z,5.46
2023-02-19T09:03:35.865Z,5.34
2023-02-19T09:08:37.312Z,4.85
2023-02-19T09:13:38.792Z,4.81
2023-02-19T09:18:40.254Z,4.96
2023-02-19T09:23:41.690Z,4.03
2023-02-19T09:28:43.176Z,5.09
2023-02-19T09:33:46.714Z,5.04
2023-02-19T09:38:48.179Z,4.56
2023-02-19T09:43:49.723Z,4.66
2023-02-19T09:48:55.744Z,4.93
2023-02-19T09:53:58.050Z,5.05
2023-02-19T09:59:00.042Z,4.70
2023-02-19T10:04:01.414Z,4.74
2023-02-19T10:09:23.658Z,5.06
2023-02-19T10:14:31.213Z,5.60
2023-02-19T10:19:34.549Z,5.09
2023-02-19T10:24:38.522Z,5.05
2023-02-19T10:29:40.263Z,5.63
2023-02-19T10:34:41.699Z,5.89
2023-02-19T10:39:47.156Z,5.95
2023-02-19T10:44:58.380Z,5.45
2023-02-19T10:50:03.290Z,5.97
2023-02-19T10:55:37.514Z,5.63
2023-02-19T11:00:39.479Z,6.06
2023-02-19T11:05:52.414Z,5.69
2023-02-19T11:10:54.310Z,5.13
2023-02-19T11:15:57.011Z,5.13
2023-02-19T11:21:06.968Z,5.23
2023-02-19T11:26:18.866Z,5.51
2023-02-19T11:31:20.332Z,5.62
2023-02-19T11:36:30.313Z,5.61
2023-02-19T11:41:38.272Z,5.66
2023-02-19T11:46:53.092Z,5.51
2023-02-19T11:52:06.802Z,5.81
2023-02-19T11:57:27.476Z,5.60
2023-02-19T12:03:02.886Z,6.24
2023-02-19T12:08:35.491Z,5.62
2023-02-19T12:13:55.584Z,5.78
2023-02-19T12:19:18.370Z,6.23
2023-02-19T12:24:41.657Z,5.86
2023-02-19T12:30:11.805Z,6.12
2023-02-19T12:35:28.055Z,5.98
2023-02-19T12:40:45.273Z,6.39
2023-02-19T12:46:09.322Z,6.82
2023-02-19T12:51:18.380Z,6.39
2023-02-19T12:56:58.210Z,6.90
2023-02-19T13:02:18.128Z,7.17
2023-02-19T13:07:35.764Z,6.83
2023-02-19T13:12:42.428Z,7.02
2023-02-19T13:17:55.022Z,7.27
2023-02-19T13:23:26.190Z,7.63
2023-02-19T13:29:00.220Z,8.01
2023-02-19T13:34:27.552Z,7.49
2023-02-19T13:39:31.016Z,7.43
2023-02-19T13:44:41.484Z,7.29
2023-02-19T13:49:49.191Z,7.64
2023-02-19T13:54:51.325Z,7.30
2023-02-19T13:59:55.282Z,8.01
2023-02-19T14:05:09.240Z,7.66
2023-02-19T14:10:14.405Z,7.67
2023-02-19T14:15:49.425Z,8.02
2023-02-19T14:21:07.007Z,7.75
2023-02-19T14:26:08.553Z,7.30
2023-02-19T14:31:25.309Z,7.83
2023-02-19T14:36:57.023Z,7.27
2023-02-19T14:42:01.684Z,7.63
2023-02-19T14:47:06.387Z,7.49
2023-02-19T14:52:21.163Z,7.68
2023-02-19T14:57:30.224Z,7.71
2023-02-19T15:02:32.397Z,7.58
2023-02-19T15:07:34.125Z,6.80
2023-02-19T15:12:46.344Z,7.18
2023-02-19T15:17:48.161Z,7.54
2023-02-19T15:22:49.903Z,6.88
2023-02-19T15:27:51.402Z,6.82
2023-02-19T15:33:00.018Z,7.37
2023-02-19T15:38:01.528Z,6.89
2023-02-19T15:43:03.011Z,7.14
2023-02-19T15:48:07.151Z,7.23
2023-02-19T15:53:14.460Z,7.01
2023-02-19T15:58:53.708Z,7.36
2023-02-19T16:03:55.734Z,7.17
2023-02-19T16:09:06.668Z,7.19
2023-02-19T16:14:34.840Z,6.99
2023-02-19T16:19:51.132Z,6.71
2023-02-19T16:24:58.829Z,6.48
2023-02-19T16:30:07.038Z,6.48
2023-02-19T16:35:35.172Z,6.48
2023-02-19T16:40:48.644Z,6.57
2023-02-19T16:45:50.409Z,6.43
2023-02-19T16:50:51.926Z,6.58
2023-02-19T16:55:53.362Z,5.91
2023-02-19T17:00:54.846Z,6.05
2023-02-19T17:05:56.361Z,5.90
2023-02-19T17:10:59.004Z,5.88
2023-02-19T17:16:00.588Z,5.59
2023-02-19T17:21:21.276Z,5.91
2023-02-19T17:26:25.609Z,5.67
2023-02-19T17:31:27.852Z,5.96
2023-02-19T17:36:31.595Z,5.25
2023-02-19T17:41:33.149Z,5.42
2023-02-19T17:46:34.658Z,5.31
2023-02-19T17:51:36.086Z,5.50
2023-02-19T17:56:39.899Z,5.48
2023-02-19T18:01:41.587Z,5.01
2023-02-19T18:06:43.291Z,5.57
2023-02-19T18:11:46.307Z,5.47
2023-02-19T18:16:50.233Z,5.70
2023-02-19T18:21:52.276Z,5.20
2023-02-19T18:26:53.719Z,5.17
2023-02-19T18:31:55.296Z,5.04
2023-02-19T18:36:57.213Z,5.09
2023-02-19T18:41:58.645Z,4.92
2023-02-19T18:47:00.135Z,5.04
2023-02-19T18:52:01.842Z,5.13
2023-02-19T18:57:04.465Z,4.98
2023-02-19T19:02:09.196Z,4.92
2023-02-19T19:07:10.883Z,4.77
2023-02-19T19:12:12.765Z,4.67
2023-02-19T19:17:14.206Z,4.81
2023-02-19T19:22:16.587Z,4.58
2023-02-19T19:27:20.044Z,4.76
2023-02-19T19:32:21.726Z,4.54
2023-02-19T19:37:23.192Z,4.42
2023-02-19T19:42:24.856Z,4.76
2023-02-19T19:47:26.301Z,4.41
2023-02-19T19:52:27.740Z,4.46
2023-02-19T19:57:29.167Z,4.46
2023-02-19T20:02:30.631Z,4.43
2023-02-19T20:07:32.208Z,4.48
2023-02-19T20:12:33.824Z,4.07
2023-02-19T20:17:35.605Z,4.31
2023-02-19T20:22:37.539Z,4.18
2023-02-19T20:27:38.992Z,4.29
2023-02-19T20:32:40.428Z,3.99
2023-02-19T20:37:41.876Z,4.25
2023-02-19T20:42:43.367Z,3.55
2023-02-19T20:47:44.922Z,3.71
2023-02-19T20:52:46.717Z,3.45
2023-02-19T20:57:48.152Z,3.52
2023-02-19T21:02:49.823Z,3.66
2023-02-19T21:07:51.314Z,3.44
2023-02-19T21:12:54.286Z,3.48
2023-02-19T21:17:55.812Z,3.02
2023-02-19T21:22:57.264Z,3.07
2023-02-19T21:27:58.709Z,3.40
2023-02-19T21:33:00.152Z,3.64
2023-02-19T21:38:03.687Z,3.65
2023-02-19T21:43:05.152Z,3.75
2023-02-19T21:48:07.710Z,3.67
2023-02-19T21:53:09.156Z,3.52
2023-02-19T21:58:11.019Z,3.51
2023-02-19T22:03:16.452Z,3.43
2023-02-19T22:08:18.010Z,3.11
2023-02-19T22:13:19.508Z,3.28
2023-02-19T22:18:20.961Z,3.46
2023-02-19T22:23:22.605Z,3.42
2023-02-19T22:28:24.195Z,3.29
2023-02-19T22:33:25.622Z,3.62
2023-02-19T22:38:27.068Z,3.87
2023-02-19T22:43:28.514Z,3.94
2023-02-19T22:48:31.187Z,3.89
2023-02-19T22:53:32.627Z,3.69
2023-02-19T22:58:34.092Z,3.82
2023-02-19T23:03:48.726Z,3.81
2023-02-19T23:08:51.290Z,3.72
2023-02-19T23:13:53.284Z,3.85
2023-02-19T23:18:54.986Z,3.85
2023-02-19T23:23:56.498Z,3.84
2023-02-19T23:28:57.953Z,3.68
2023-02-19T23:33:59.408Z,3.79
2023-02-19T23:39:00.853Z,3.80
2023-02-19T23:44:02.340Z,3.77
2023-02-19T23:49:03.803Z,3.85
2023-02-19T23:54:05.327Z,3.85
2023-02-19T23:59:06.777Z,3.89
